Time;durP1;ratioP1;P1;durP2;ratioP2;P2;SDS_P1;SDS_P2;PMS_P1;PMS_P2;Temp;Humidity;BMP_temperature;BMP_pressure;BME280_temperature;BME280_humidity;BME280_pressure;Samples;Min_cycle;Max_cycle;Signal;HPM_P1;HPM_P2
2021/03/26 00:02:07;;;;;;;17.83;8.50;;;8.10;99.90;;;;;;5017608;28;20071;-87
2021/03/26 00:04:33;;;;;;;18.60;8.60;;;8.10;99.90;;;;;;5027595;28;20022;-85
2021/03/26 00:07:00;;;;;;;21.58;8.80;;;8.10;99.90;;;;;;5017236;28;20025;-85
2021/03/26 00:09:28;;;;;;;15.07;8.38;;;8.10;99.90;;;;;;5027549;28;20022;-86
2021/03/26 00:12:05;;;;;;;17.27;8.15;;;8.20;99.90;;;;;;5029809;28;20029;-86
2021/03/26 00:14:31;;;;;;;15.88;8.70;;;8.20;99.90;;;;;;5022882;28;20071;-84
2021/03/26 00:16:57;;;;;;;14.95;9.20;;;8.30;99.90;;;;;;5028918;28;20033;-86
2021/03/26 00:19:23;;;;;;;15.63;9.00;;;8.20;99.90;;;;;;5032355;28;20395;-86
2021/03/26 00:21:48;;;;;;;16.50;8.52;;;8.30;99.90;;;;;;5026096;28;20021;-86
2021/03/26 00:24:14;;;;;;;16.88;9.02;;;8.30;99.90;;;;;;5021286;28;20101;-86
2021/03/26 00:26:40;;;;;;;13.85;8.55;;;8.30;99.90;;;;;;5031491;28;20040;-86
2021/03/26 00:29:11;;;;;;;20.20;8.32;;;8.30;99.90;;;;;;5024947;28;20044;-86
2021/03/26 00:31:41;;;;;;;18.83;8.30;;;8.30;99.90;;;;;;5026911;28;20034;-86
2021/03/26 00:34:07;;;;;;;18.08;8.23;;;8.30;99.90;;;;;;5032060;28;20086;-86
2021/03/26 00:36:34;;;;;;;15.70;7.65;;;8.30;99.90;;;;;;5026987;28;20454;-86
2021/03/26 00:39:02;;;;;;;15.48;8.00;;;8.30;99.90;;;;;;5029524;28;20072;-86
2021/03/26 00:41:28;;;;;;;15.85;7.60;;;8.40;99.90;;;;;;5031977;28;20075;-86
2021/03/26 00:43:53;;;;;;;14.50;8.23;;;8.40;99.90;;;;;;5029980;28;20026;-86
2021/03/26 00:46:22;;;;;;;14.60;8.05;;;8.40;99.90;;;;;;5026863;28;20032;-86
2021/03/26 00:48:48;;;;;;;15.55;7.32;;;8.30;99.90;;;;;;5029746;28;20033;-86
2021/03/26 00:51:14;;;;;;;13.85;7.85;;;8.30;99.90;;;;;;5020562;28;20102;-85
2021/03/26 00:53:39;;;;;;;19.02;8.25;;;8.30;99.90;;;;;;5030752;28;20021;-86
2021/03/26 00:56:05;;;;;;;14.15;7.40;;;8.30;99.90;;;;;;5024756;28;20379;-85
2021/03/26 00:58:31;;;;;;;15.02;8.38;;;8.20;99.90;;;;;;5024694;28;20439;-84
2021/03/26 01:00:57;;;;;;;15.15;7.70;;;8.20;99.90;;;;;;5030084;28;20029;-86
2021/03/26 01:03:25;;;;;;;16.17;8.10;;;8.20;99.90;;;;;;5022552;28;20160;-86
2021/03/26 01:05:53;;;;;;;18.90;8.38;;;8.10;99.90;;;;;;5022397;28;20074;-86
2021/03/26 01:08:20;;;;;;;14.02;8.27;;;8.10;99.90;;;;;;5023377;28;20026;-86
2021/03/26 01:10:50;;;;;;;12.80;7.72;;;8.10;99.90;;;;;;5021843;28;20060;-86
2021/03/26 01:13:16;;;;;;;13.75;7.82;;;8.00;99.90;;;;;;5026608;28;20052;-86
2021/03/26 01:15:43;;;;;;;14.90;8.25;;;8.00;99.90;;;;;;5028547;28;20021;-86
2021/03/26 01:18:14;;;;;;;17.30;8.25;;;8.00;99.90;;;;;;5027295;28;20109;-86
2021/03/26 01:20:39;;;;;;;15.77;7.82;;;8.00;99.90;;;;;;5028145;28;20036;-86
2021/03/26 01:23:06;;;;;;;13.93;8.38;;;7.90;99.90;;;;;;5024450;28;20387;-86
2021/03/26 01:25:38;;;;;;;16.20;8.60;;;7.90;99.90;;;;;;5026460;28;20534;-86
2021/03/26 01:28:04;;;;;;;16.08;8.23;;;7.90;99.90;;;;;;5030156;28;20024;-86
2021/03/26 01:30:31;;;;;;;15.00;8.43;;;7.90;99.90;;;;;;5042334;28;20033;-86
2021/03/26 01:32:57;;;;;;;15.50;8.13;;;7.80;99.90;;;;;;5023415;28;20102;-86
2021/03/26 01:35:24;;;;;;;16.83;8.35;;;7.90;99.90;;;;;;5034843;28;20125;-87
2021/03/26 01:37:50;;;;;;;13.70;8.18;;;7.90;99.90;;;;;;5024008;28;20048;-85
2021/03/26 01:40:50;;;;;;;16.45;8.90;;;7.90;99.90;;;;;;5026979;28;20022;-86
2021/03/26 01:43:26;;;;;;;14.73;8.65;;;7.90;99.90;;;;;;5030664;28;20038;-86
2021/03/26 01:45:53;;;;;;;17.75;8.48;;;7.80;99.90;;;;;;5029227;28;20076;-86
2021/03/26 01:48:46;;;;;;;16.27;8.02;;;7.80;99.90;;;;;;5030802;28;20060;-87
2021/03/26 01:51:22;;;;;;;12.93;7.53;;;7.80;99.90;;;;;;5026213;28;20034;-86
2021/03/26 01:53:48;;;;;;;18.77;8.88;;;7.80;99.90;;;;;;5032942;28;20040;-87
2021/03/26 01:56:14;;;;;;;14.88;8.55;;;7.70;99.90;;;;;;5032436;28;20026;-86
2021/03/26 01:58:40;;;;;;;14.98;8.25;;;7.70;99.90;;;;;;5031144;28;20394;-87
2021/03/26 02:01:23;;;;;;;14.88;8.13;;;7.70;99.90;;;;;;5032509;28;20057;-86
2021/03/26 02:03:56;;;;;;;16.38;8.25;;;7.70;99.90;;;;;;5025708;28;20079;-86
2021/03/26 02:06:23;;;;;;;13.05;7.68;;;7.60;99.90;;;;;;5029463;28;20029;-87
2021/03/26 02:08:51;;;;;;;15.00;8.02;;;7.60;99.90;;;;;;5027736;28;20041;-87
2021/03/26 02:11:35;;;;;;;13.80;7.82;;;7.50;99.90;;;;;;5034739;28;20032;-87
2021/03/26 02:14:06;;;;;;;16.70;8.30;;;7.50;99.90;;;;;;5034817;28;20014;-87
2021/03/26 02:16:32;;;;;;;12.70;7.63;;;7.50;99.90;;;;;;5031215;28;20045;-87
2021/03/26 02:18:58;;;;;;;14.63;7.95;;;7.40;99.90;;;;;;5033832;28;20064;-86
2021/03/26 02:21:28;;;;;;;19.00;8.70;;;7.40;99.90;;;;;;5028216;28;20100;-86
2021/03/26 02:23:56;;;;;;;16.13;8.32;;;7.30;99.90;;;;;;5028688;28;20051;-87
2021/03/26 02:26:29;;;;;;;16.63;8.55;;;7.30;99.90;;;;;;5020738;28;20028;-87
2021/03/26 02:28:56;;;;;;;18.77;8.13;;;7.20;99.90;;;;;;5036333;28;20498;-86
2021/03/26 02:31:22;;;;;;;15.70;8.10;;;7.20;99.90;;;;;;5026288;28;20044;-86
2021/03/26 02:33:49;;;;;;;12.03;7.53;;;7.20;99.90;;;;;;5023662;28;20025;-86
2021/03/26 02:36:17;;;;;;;14.45;8.02;;;7.20;99.90;;;;;;5032060;28;20033;-86
2021/03/26 02:38:50;;;;;;;15.70;7.38;;;7.20;99.90;;;;;;5021236;28;20096;-87
2021/03/26 02:41:22;;;;;;;14.60;8.17;;;7.20;99.90;;;;;;5028607;28;20030;-87
2021/03/26 02:44:00;;;;;;;16.05;8.18;;;7.20;99.90;;;;;;5029049;28;20029;-87
2021/03/26 02:46:50;;;;;;;16.50;8.52;;;7.20;99.90;;;;;;5024924;28;20021;-86
2021/03/26 02:49:44;;;;;;;14.60;8.13;;;7.20;99.90;;;;;;5018078;28;20025;-86
2021/03/26 02:52:39;;;;;;;14.03;8.30;;;7.20;99.90;;;;;;5026556;28;20022;-87
2021/03/26 02:55:13;;;;;;;13.68;8.18;;;7.20;99.90;;;;;;5016035;28;20037;-86
2021/03/26 02:57:45;;;;;;;14.27;8.02;;;7.20;99.90;;;;;;5028050;28;20092;-86
2021/03/26 03:00:23;;;;;;;17.38;8.27;;;7.10;99.90;;;;;;5027200;28;20026;-86
2021/03/26 03:02:50;;;;;;;15.15;8.43;;;7.10;99.90;;;;;;5027173;28;20033;-85
2021/03/26 03:05:19;;;;;;;14.35;8.10;;;7.10;99.90;;;;;;5026885;28;20112;-86
2021/03/26 03:07:52;;;;;;;12.40;7.38;;;7.00;99.90;;;;;;5028070;28;20036;-86
2021/03/26 03:10:42;;;;;;;15.33;8.10;;;7.00;99.90;;;;;;5029071;28;20389;-86
2021/03/26 03:13:46;;;;;;;15.10;8.13;;;7.00;99.90;;;;;;5029677;28;20030;-86
2021/03/26 03:16:37;;;;;;;14.60;8.45;;;6.90;99.90;;;;;;5013933;28;20022;-86
2021/03/26 03:19:06;;;;;;;17.60;8.45;;;6.90;99.90;;;;;;5021936;28;20083;-87
2021/03/26 03:22:01;;;;;;;15.77;8.57;;;6.90;99.90;;;;;;5019196;28;20022;-86
2021/03/26 03:24:46;;;;;;;16.37;9.10;;;6.80;99.90;;;;;;5027649;28;20044;-86
2021/03/26 03:27:43;;;;;;;16.00;8.23;;;6.80;99.90;;;;;;5027064;28;20036;-86
2021/03/26 03:30:14;;;;;;;17.43;8.97;;;6.70;99.90;;;;;;5032274;28;20026;-86
2021/03/26 03:33:01;;;;;;;18.25;9.00;;;6.70;99.90;;;;;;5027393;28;20076;-87
2021/03/26 03:35:52;;;;;;;14.63;8.47;;;6.70;99.90;;;;;;5028553;28;20032;-87
2021/03/26 03:38:27;;;;;;;16.00;8.52;;;6.70;99.90;;;;;;5032928;28;20036;-88
2021/03/26 03:41:02;;;;;;;15.00;8.73;;;6.70;99.90;;;;;;5034223;28;20402;-86
2021/03/26 03:43:34;;;;;;;17.63;9.13;;;6.60;99.90;;;;;;5030993;28;20025;-86
2021/03/26 03:46:13;;;;;;;15.05;8.70;;;6.60;99.90;;;;;;5028538;28;20026;-86
2021/03/26 03:49:01;;;;;;;13.37;7.53;;;6.60;99.90;;;;;;5030848;28;20082;-86
2021/03/26 03:51:38;;;;;;;15.20;8.17;;;6.50;99.90;;;;;;5027370;28;20040;-86
2021/03/26 03:54:03;;;;;;;17.60;8.03;;;6.60;99.90;;;;;;5026973;28;20028;-86
2021/03/26 03:56:41;;;;;;;13.57;8.40;;;6.50;99.90;;;;;;5025502;28;20021;-86
2021/03/26 03:59:15;;;;;;;17.20;9.37;;;6.50;99.90;;;;;;5022555;28;20075;-86
2021/03/26 04:01:59;;;;;;;18.43;8.60;;;6.50;99.90;;;;;;5022851;28;20467;-86
2021/03/26 04:04:33;;;;;;;21.07;9.30;;;6.40;99.90;;;;;;5026868;28;20030;-87
2021/03/26 04:07:12;;;;;;;15.10;8.33;;;6.40;99.90;;;;;;5028487;28;20033;-86
2021/03/26 04:09:45;;;;;;;14.83;9.00;;;6.40;99.90;;;;;;5022951;28;20072;-85
2021/03/26 04:12:12;;;;;;;;;;;6.40;99.90;;;;;;5025559;28;20582;-86
2021/03/26 04:14:49;;;;;;;14.97;8.80;;;6.50;99.90;;;;;;5026920;28;19909;-86
2021/03/26 04:17:28;;;;;;;16.87;8.30;;;6.50;99.90;;;;;;5023087;28;20514;-86
2021/03/26 04:20:09;;;;;;;16.27;8.90;;;6.50;99.90;;;;;;5023133;28;20397;-86
2021/03/26 04:22:45;;;;;;;14.80;8.97;;;6.50;99.90;;;;;;5026384;28;20021;-86
2021/03/26 04:25:31;;;;;;;14.30;8.00;;;6.50;99.90;;;;;;5022258;28;20034;-86
2021/03/26 04:28:17;;;;;;;19.33;9.30;;;6.50;99.90;;;;;;5038733;28;20101;-87
2021/03/26 04:30:51;;;;;;;16.03;8.47;;;6.50;99.90;;;;;;5022159;28;20022;-86
2021/03/26 04:33:17;;;;;;;16.07;8.10;;;6.50;99.90;;;;;;5029499;28;20052;-86
2021/03/26 04:35:45;;;;;;;17.53;9.00;;;6.50;99.90;;;;;;5023986;28;20040;-86
2021/03/26 04:38:29;;;;;;;14.93;9.07;;;6.50;99.90;;;;;;5019798;28;20096;-86
2021/03/26 04:41:00;;;;;;;13.90;8.53;;;6.50;99.90;;;;;;5020222;28;20104;-86
2021/03/26 04:43:35;;;;;;;16.10;8.37;;;6.50;99.90;;;;;;5028352;28;20025;-86
2021/03/26 04:46:22;;;;;;;15.87;9.30;;;6.50;99.90;;;;;;5030527;28;20155;-86
2021/03/26 04:49:05;;;;;;;17.83;9.33;;;6.40;99.90;;;;;;5015809;28;20505;-86
2021/03/26 04:51:49;;;;;;;16.35;8.10;;;6.50;99.90;;;;;;5020300;28;20395;-87
2021/03/26 04:54:25;;;;;;;17.27;8.43;;;6.40;99.90;;;;;;5025718;28;20087;-86
2021/03/26 04:56:58;;;;;;;13.63;8.43;;;6.40;99.90;;;;;;5029089;28;20017;-86
2021/03/26 04:59:30;;;;;;;14.20;7.67;;;6.40;99.90;;;;;;5027946;28;20295;-86
2021/03/26 05:01:57;;;;;;;;;;;6.30;99.90;;;;;;5033099;28;20017;-87
2021/03/26 05:04:27;;;;;;;13.63;8.23;;;6.30;99.90;;;;;;5019648;28;20382;-86
2021/03/26 05:07:01;;;;;;;15.63;8.37;;;6.30;99.90;;;;;;5024883;28;20033;-87
2021/03/26 05:09:33;;;;;;;15.33;9.07;;;6.20;99.90;;;;;;5024557;28;20612;-87
2021/03/26 05:12:06;;;;;;;14.00;8.55;;;6.20;99.90;;;;;;5023051;28;20018;-86
2021/03/26 05:14:41;;;;;;;16.77;9.40;;;6.20;99.90;;;;;;5032928;28;20017;-86
2021/03/26 05:17:30;;;;;;;15.03;8.57;;;6.20;99.90;;;;;;5031772;28;20013;-86
2021/03/26 05:20:04;;;;;;;15.40;9.17;;;6.20;99.90;;;;;;5033746;28;20037;-86
2021/03/26 05:22:44;;;;;;;17.80;8.63;;;6.20;99.90;;;;;;5033762;28;20043;-86
2021/03/26 05:25:25;;;;;;;15.03;8.73;;;6.30;99.90;;;;;;5034290;28;20040;-86
2021/03/26 05:27:53;;;;;;;16.00;8.67;;;6.20;99.90;;;;;;5030910;28;20022;-85
2021/03/26 05:30:31;;;;;;;16.17;9.27;;;6.20;99.90;;;;;;5035631;28;20033;-86
2021/03/26 05:33:14;;;;;;;16.63;8.80;;;6.20;99.90;;;;;;5032242;28;20032;-86
2021/03/26 05:36:07;;;;;;;18.37;9.90;;;6.20;99.90;;;;;;5032925;28;20026;-87
2021/03/26 05:39:04;;;;;;;22.43;10.23;;;6.20;99.90;;;;;;5034606;28;20021;-86
2021/03/26 05:41:57;;;;;;;19.33;11.80;;;6.20;99.90;;;;;;5033983;28;20093;-86
2021/03/26 05:44:51;;;;;;;17.27;10.03;;;6.20;99.90;;;;;;5030314;28;20025;-86
2021/03/26 05:47:26;;;;;;;18.03;11.30;;;6.20;99.90;;;;;;5036162;28;20259;-85
2021/03/26 05:50:03;;;;;;;17.50;10.85;;;6.30;99.90;;;;;;5032771;28;20509;-86
2021/03/26 05:52:48;;;;;;;19.27;10.47;;;6.40;99.90;;;;;;5033439;28;20025;-85
2021/03/26 05:55:29;;;;;;;15.07;9.13;;;6.40;99.90;;;;;;5033338;28;20037;-84
2021/03/26 05:58:32;;;;;;;18.83;9.40;;;6.40;99.90;;;;;;5034604;28;20167;-86
2021/03/26 06:01:12;;;;;;;16.17;10.00;;;6.30;99.90;;;;;;5041914;28;20038;-87
2021/03/26 06:04:15;;;;;;;18.80;10.17;;;6.30;99.90;;;;;;5026386;28;20057;-84
2021/03/26 06:06:47;;;;;;;20.37;9.77;;;6.30;99.90;;;;;;5022370;28;20029;-84
2021/03/26 06:09:21;;;;;;;18.02;10.38;;;6.40;99.90;;;;;;5031828;28;20109;-86
2021/03/26 06:12:05;;;;;;;20.47;11.33;;;6.40;99.90;;;;;;5038064;28;20101;-85
2021/03/26 06:14:55;;;;;;;19.63;11.20;;;6.40;99.90;;;;;;5030599;28;20538;-86
2021/03/26 06:17:57;;;;;;;20.50;11.77;;;6.40;99.90;;;;;;5032861;28;20025;-86
2021/03/26 06:20:40;;;;;;;20.50;12.00;;;6.40;99.90;;;;;;5029693;28;20026;-86
2021/03/26 06:23:54;;;;;;;23.40;12.33;;;6.40;99.90;;;;;;5026828;28;20034;-86
2021/03/26 06:26:37;;;;;;;18.63;11.40;;;6.50;99.90;;;;;;5014237;28;20049;-86
2021/03/26 06:29:57;;;;;;;20.87;11.93;;;6.60;99.90;;;;;;5026912;28;20053;-85
2021/03/26 06:33:01;;;;;;;20.63;10.93;;;6.70;99.90;;;;;;4996214;28;20411;-88
2021/03/26 06:35:58;;;;;;;23.90;11.40;;;6.80;99.90;;;;;;5032056;28;20045;-87
2021/03/26 06:38:32;;;;;;;24.07;12.10;;;7.00;99.90;;;;;;5030870;28;20041;-87
2021/03/26 06:41:08;;;;;;;18.73;11.23;;;7.10;99.90;;;;;;5030981;28;20029;-84
2021/03/26 06:43:50;;;;;;;20.60;11.37;;;7.20;99.90;;;;;;5026165;28;20060;-84
2021/03/26 06:46:28;;;;;;;21.17;11.20;;;7.30;99.90;;;;;;5029002;28;20052;-84
2021/03/26 06:49:09;;;;;;;16.43;10.17;;;7.50;99.90;;;;;;5026320;28;20028;-84
2021/03/26 06:52:12;;;;;;;20.43;10.77;;;7.60;99.90;;;;;;5033468;28;20026;-83
2021/03/26 06:55:06;;;;;;;25.03;11.30;;;7.80;99.90;;;;;;5030845;28;20025;-84
2021/03/26 06:57:44;;;;;;;22.77;10.73;;;7.70;99.90;;;;;;5028588;28;20036;-85
2021/03/26 07:00:48;;;;;;;22.17;11.60;;;7.70;99.90;;;;;;5032204;28;20025;-85
2021/03/26 07:03:46;;;;;;;19.40;11.57;;;7.70;99.90;;;;;;5028135;28;20056;-85
2021/03/26 07:06:48;;;;;;;19.80;11.80;;;7.70;99.90;;;;;;5026036;28;20036;-84
2021/03/26 07:09:48;;;;;;;17.10;11.27;;;7.60;99.90;;;;;;5045705;28;20445;-85
2021/03/26 07:12:34;;;;;;;19.00;11.30;;;7.70;99.90;;;;;;5011678;28;20075;-87
2021/03/26 07:15:06;;;;;;;23.47;12.23;;;7.70;99.90;;;;;;5027314;28;20044;-85
2021/03/26 07:17:34;;;;;;;20.80;11.02;;;7.70;99.90;;;;;;5030424;28;20501;-85
2021/03/26 07:20:37;;;;;;;21.43;11.43;;;7.80;99.90;;;;;;5031836;28;20056;-87
2021/03/26 07:23:22;;;;;;;20.58;10.98;;;7.90;99.90;;;;;;5030710;28;20056;-85
2021/03/26 07:25:51;;;;;;;19.88;11.48;;;8.10;99.90;;;;;;5033627;28;20041;-84
2021/03/26 07:28:31;;;;;;;19.90;11.33;;;8.20;99.90;;;;;;5030764;28;20036;-84
2021/03/26 07:31:30;;;;;;;20.27;11.53;;;8.30;99.90;;;;;;5035511;28;20017;-87
2021/03/26 07:34:18;;;;;;;20.63;10.45;;;8.50;99.90;;;;;;5029860;28;20423;-86
2021/03/26 07:37:06;;;;;;;20.30;11.07;;;8.70;99.90;;;;;;5030420;28;20033;-87
2021/03/26 07:39:50;;;;;;;21.52;10.90;;;8.80;99.90;;;;;;5031002;28;20079;-86
2021/03/26 07:42:49;;;;;;;22.63;11.38;;;8.80;99.90;;;;;;5031418;28;20030;-86
2021/03/26 07:45:30;;;;;;;19.77;12.25;;;8.90;99.90;;;;;;5027083;28;20040;-85
2021/03/26 07:48:22;;;;;;;21.73;11.43;;;8.90;99.90;;;;;;5031953;28;20494;-87
2021/03/26 07:51:00;;;;;;;19.95;10.85;;;9.00;99.90;;;;;;5022381;28;20037;-83
2021/03/26 07:53:40;;;;;;;20.60;10.80;;;9.00;99.90;;;;;;5027764;28;20460;-87
2021/03/26 07:56:32;;;;;;;23.40;10.48;;;9.00;99.90;;;;;;5031856;28;20022;-85
2021/03/26 07:59:21;;;;;;;19.95;11.55;;;9.20;99.90;;;;;;5028815;28;20022;-87
2021/03/26 08:01:59;;;;;;;18.38;10.82;;;9.30;99.90;;;;;;5026065;28;20080;-86
2021/03/26 08:05:08;;;;;;;19.40;10.23;;;9.50;99.90;;;;;;5020659;28;20025;-85
2021/03/26 08:07:46;;;;;;;19.00;10.05;;;9.60;99.90;;;;;;4994066;28;20181;-85
2021/03/26 08:10:30;;;;;;;21.23;11.38;;;9.80;99.90;;;;;;5027099;28;20629;-85
2021/03/26 08:13:13;;;;;;;24.90;11.25;;;10.00;99.90;;;;;;5029896;28;20030;-85
2021/03/26 08:15:44;;;;;;;;;;;10.10;99.90;;;;;;5029237;28;20079;-85
2021/03/26 08:18:30;;;;;;;18.42;9.77;;;10.30;99.90;;;;;;5032523;28;19917;-85
2021/03/26 08:21:19;;;;;;;15.60;9.27;;;10.50;99.90;;;;;;5033337;28;20383;-85
2021/03/26 08:24:06;;;;;;;20.27;9.88;;;10.70;99.90;;;;;;5027506;28;20029;-85
2021/03/26 08:26:50;;;;;;;17.60;9.93;;;10.80;99.90;;;;;;5024929;28;20087;-86
2021/03/26 08:29:44;;;;;;;20.23;10.07;;;11.00;99.90;;;;;;5024339;28;20499;-86
2021/03/26 08:32:25;;;;;;;18.90;10.75;;;11.10;99.90;;;;;;5024045;28;20017;-85
2021/03/26 08:35:22;;;;;;;16.20;9.38;;;11.30;99.90;;;;;;5022244;28;20025;-86
2021/03/26 08:37:54;;;;;;;17.83;9.52;;;11.30;99.90;;;;;;5020139;28;20049;-87
2021/03/26 08:40:24;;;;;;;18.08;11.05;;;11.30;99.90;;;;;;5021992;28;20021;-86
2021/03/26 08:42:52;;;;;;;16.83;9.95;;;11.30;99.90;;;;;;5024646;28;20025;-87
2021/03/26 08:45:26;;;;;;;17.38;9.82;;;11.50;99.90;;;;;;5024909;28;20406;-86
2021/03/26 08:47:58;;;;;;;19.63;11.48;;;11.50;99.90;;;;;;5017657;28;20504;-87
2021/03/26 08:50:49;;;;;;;16.48;9.60;;;11.60;99.90;;;;;;5022080;28;20489;-86
2021/03/26 08:53:36;;;;;;;17.10;9.70;;;11.80;99.90;;;;;;5016588;28;20036;-86
2021/03/26 08:56:32;;;;;;;18.58;8.95;;;11.90;99.90;;;;;;5037521;28;20022;-85
2021/03/26 08:59:25;;;;;;;11.88;8.02;;;12.20;99.90;;;;;;5023540;28;20768;-86
2021/03/26 09:02:26;;;;;;;14.93;8.15;;;12.40;99.90;;;;;;5023154;28;20034;-85
2021/03/26 09:05:19;;;;;;;16.77;7.72;;;12.50;99.90;;;;;;5005564;28;20125;-85
2021/03/26 09:08:11;;;;;;;13.57;8.18;;;12.40;99.50;;;;;;5021703;28;20062;-85
2021/03/26 09:10:59;;;;;;;16.70;7.43;;;12.60;99.40;;;;;;5022743;28;20548;-83
2021/03/26 09:13:37;;;;;;;16.45;8.00;;;12.70;97.10;;;;;;5023595;28;20356;-85
2021/03/26 09:16:16;;;;;;;14.75;7.63;;;12.70;98.00;;;;;;5021062;28;20030;-85
2021/03/26 09:19:15;;;;;;;17.48;8.45;;;12.80;95.70;;;;;;5023733;28;20152;-84
2021/03/26 09:21:47;;;;;;;15.15;8.50;;;12.90;94.90;;;;;;5018774;28;20136;-85
2021/03/26 09:24:44;;;;;;;19.83;9.77;;;13.10;95.20;;;;;;5025007;28;20052;-85
2021/03/26 09:27:31;;;;;;;16.98;9.68;;;13.10;94.00;;;;;;5023721;28;20056;-84
2021/03/26 09:30:13;;;;;;;19.50;9.90;;;13.30;94.70;;;;;;5023540;28;20087;-84
2021/03/26 09:32:58;;;;;;;18.08;10.07;;;13.50;94.50;;;;;;5025171;28;20030;-86
2021/03/26 09:35:27;;;;;;;16.70;10.27;;;13.70;92.90;;;;;;5027882;28;20017;-83
2021/03/26 09:38:03;;;;;;;21.75;11.10;;;13.90;94.30;;;;;;5025287;28;20043;-85
2021/03/26 09:40:48;;;;;;;19.08;9.85;;;13.90;92.40;;;;;;5024601;28;20025;-86
2021/03/26 09:43:21;;;;;;;30.35;10.00;;;14.00;92.80;;;;;;5027994;28;20053;-85
2021/03/26 09:45:53;;;;;;;19.27;10.60;;;14.10;92.10;;;;;;5024022;28;20391;-86
2021/03/26 09:48:57;;;;;;;18.90;9.60;;;14.30;91.50;;;;;;5046144;28;20037;-85
2021/03/26 09:51:44;;;;;;;16.70;9.35;;;14.50;90.10;;;;;;5022800;28;20021;-85
2021/03/26 09:54:32;;;;;;;16.80;9.90;;;14.80;91.00;;;;;;5028768;28;20021;-85
2021/03/26 09:57:16;;;;;;;19.73;9.52;;;14.90;89.60;;;;;;5022744;28;20036;-85
2021/03/26 10:00:05;;;;;;;20.90;9.63;;;15.00;88.50;;;;;;5045072;28;20429;-87
2021/03/26 10:02:39;;;;;;;15.95;9.68;;;15.20;87.50;;;;;;5028362;28;20331;-86
2021/03/26 10:05:26;;;;;;;15.30;8.48;;;15.20;82.80;;;;;;5021174;28;20112;-86
2021/03/26 10:08:31;;;;;;;15.75;9.10;;;15.30;83.80;;;;;;5029725;28;20029;-87
2021/03/26 10:11:05;;;;;;;16.63;10.07;;;15.40;83.00;;;;;;5029582;28;20085;-87
2021/03/26 10:13:46;;;;;;;17.77;9.25;;;15.50;82.70;;;;;;5029609;28;20017;-85
2021/03/26 10:16:16;;;;;;;17.80;9.48;;;15.60;79.80;;;;;;5028891;28;20075;-86
2021/03/26 10:19:07;;;;;;;13.45;8.77;;;15.70;80.00;;;;;;5029267;28;20025;-86
2021/03/26 10:21:35;;;;;;;16.85;9.73;;;15.90;80.50;;;;;;5028667;28;20033;-85
2021/03/26 10:24:43;;;;;;;14.57;9.70;;;16.00;80.20;;;;;;5030943;28;20033;-87
2021/03/26 10:27:20;;;;;;;17.20;9.95;;;16.00;78.20;;;;;;5028916;28;20037;-87
2021/03/26 10:29:52;;;;;;;14.93;9.02;;;15.70;76.80;;;;;;5029574;28;20018;-88
2021/03/26 10:32:24;;;;;;;16.55;9.70;;;15.90;78.50;;;;;;5029918;28;20052;-87
2021/03/26 10:34:52;;;;;;;19.88;9.43;;;16.10;77.80;;;;;;5033269;28;20026;-86
2021/03/26 10:37:35;;;;;;;15.35;9.20;;;16.10;76.00;;;;;;5029756;28;20025;-86
2021/03/26 10:40:22;;;;;;;15.48;8.90;;;16.20;74.60;;;;;;5014819;28;20029;-86
2021/03/26 10:43:23;;;;;;;15.63;9.52;;;16.50;74.50;;;;;;5012552;28;20030;-86
2021/03/26 10:45:58;;;;;;;14.27;8.70;;;16.50;71.20;;;;;;5012362;28;20442;-86
2021/03/26 10:48:41;;;;;;;16.02;8.95;;;16.60;70.70;;;;;;5016769;28;20041;-86
2021/03/26 10:51:25;;;;;;;13.15;7.72;;;16.80;72.70;;;;;;5017315;28;20025;-86
2021/03/26 10:54:03;;;;;;;13.73;8.05;;;17.00;68.50;;;;;;5025444;28;20483;-88
2021/03/26 10:56:50;;;;;;;12.15;7.53;;;17.20;67.90;;;;;;5018610;28;20479;-89
2021/03/26 10:59:40;;;;;;;14.88;7.65;;;17.30;68.50;;;;;;5013005;28;20030;-87
2021/03/26 11:02:25;;;;;;;12.32;6.53;;;17.50;67.30;;;;;;5005085;28;20041;-86
2021/03/26 11:05:19;;;;;;;9.13;4.93;;;17.50;63.30;;;;;;5019998;28;20041;-86
2021/03/26 11:08:03;;;;;;;11.18;4.97;;;17.50;61.80;;;;;;5031432;28;20033;-85
2021/03/26 11:10:36;;;;;;;8.00;4.57;;;17.50;61.90;;;;;;5023470;28;20069;-86
2021/03/26 11:13:12;;;;;;;8.65;5.00;;;17.50;62.20;;;;;;5015935;28;20018;-87
2021/03/26 11:15:45;;;;;;;7.47;4.32;;;17.70;60.70;;;;;;5024595;28;20026;-86
2021/03/26 11:18:28;;;;;;;9.90;4.57;;;17.70;60.20;;;;;;5024942;28;20037;-86
2021/03/26 11:21:10;;;;;;;9.70;4.72;;;17.50;59.50;;;;;;5025953;28;20064;-85
2021/03/26 11:23:41;;;;;;;9.57;5.20;;;17.20;60.30;;;;;;5017855;28;20022;-86
2021/03/26 11:26:30;;;;;;;8.73;4.75;;;17.50;59.60;;;;;;5029532;28;20047;-87
2021/03/26 11:29:02;;;;;;;8.68;4.15;;;17.40;59.00;;;;;;5044512;28;20506;-86
2021/03/26 11:31:38;;;;;;;7.68;3.70;;;17.20;58.50;;;;;;5023426;28;20026;-85
2021/03/26 11:34:30;;;;;;;8.73;3.83;;;17.10;57.90;;;;;;5014203;28;20499;-86
2021/03/26 11:37:29;;;;;;;8.85;3.80;;;17.00;58.70;;;;;;5029359;28;20029;-86
2021/03/26 11:40:16;;;;;;;8.25;3.80;;;16.80;59.80;;;;;;5027059;28;20037;-85
2021/03/26 11:43:09;;;;;;;9.13;4.07;;;17.20;60.00;;;;;;5032343;28;20360;-86
2021/03/26 11:45:46;;;;;;;8.52;3.83;;;17.20;58.40;;;;;;5032309;28;20025;-86
2021/03/26 11:48:37;;;;;;;6.10;3.05;;;17.30;58.30;;;;;;5032258;28;20541;-86
2021/03/26 11:51:21;;;;;;;5.82;3.08;;;17.70;57.40;;;;;;5030332;28;20041;-86
2021/03/26 11:54:20;;;;;;;10.25;3.85;;;17.70;56.00;;;;;;5034003;28;20467;-86
2021/03/26 11:57:15;;;;;;;6.13;3.40;;;17.60;55.30;;;;;;5030926;28;20025;-86
2021/03/26 12:00:19;;;;;;;8.25;4.00;;;17.50;55.90;;;;;;5016721;28;20491;-86
2021/03/26 12:03:12;;;;;;;8.95;4.45;;;17.50;55.90;;;;;;5027351;28;20021;-86
2021/03/26 12:06:02;;;;;;;10.43;4.50;;;17.40;57.50;;;;;;5017663;28;20664;-86
2021/03/26 12:08:50;;;;;;;8.27;4.90;;;17.70;57.70;;;;;;5024432;28;20021;-87
2021/03/26 12:12:04;;;;;;;8.15;5.05;;;18.00;56.10;;;;;;5028908;28;20026;-86
2021/03/26 12:14:48;;;;;;;7.65;4.15;;;18.20;54.60;;;;;;5020220;28;20048;-87
2021/03/26 12:17:43;;;;;;;8.57;5.03;;;18.30;52.70;;;;;;5029457;28;20025;-87
2021/03/26 12:20:21;;;;;;;8.93;4.65;;;18.20;54.50;;;;;;5025166;28;20037;-86
2021/03/26 12:22:59;;;;;;;9.23;4.72;;;18.20;54.30;;;;;;5028168;28;20087;-86
2021/03/26 12:25:49;;;;;;;18.25;5.05;;;18.30;53.70;;;;;;5045925;28;20042;-86
2021/03/26 12:28:52;;;;;;;11.88;4.97;;;18.30;54.00;;;;;;5030545;28;20068;-86
2021/03/26 12:31:37;;;;;;;7.20;4.05;;;18.20;54.50;;;;;;5030624;28;20030;-85
2021/03/26 12:34:47;;;;;;;7.80;3.97;;;18.40;54.50;;;;;;5030454;28;20100;-86
2021/03/26 12:37:31;;;;;;;7.85;3.50;;;18.60;52.90;;;;;;5009873;28;20037;-86
2021/03/26 12:40:22;;;;;;;9.13;4.10;;;18.90;51.50;;;;;;5030502;28;20116;-86
2021/03/26 12:43:01;;;;;;;5.57;3.08;;;19.00;51.80;;;;;;5031126;28;20098;-86
2021/03/26 12:45:45;;;;;;;7.32;2.88;;;18.80;49.60;;;;;;5033632;28;20028;-86
2021/03/26 12:48:27;;;;;;;7.10;3.08;;;18.90;50.60;;;;;;5034025;28;20029;-86
2021/03/26 12:51:00;;;;;;;6.88;3.13;;;19.10;50.90;;;;;;5032166;28;20130;-86
2021/03/26 12:53:41;;;;;;;8.07;3.10;;;19.30;49.20;;;;;;5030855;28;20034;-85
2021/03/26 12:56:35;;;;;;;6.63;4.00;;;19.20;49.80;;;;;;5030653;28;20033;-85
2021/03/26 12:59:13;;;;;;;7.75;3.00;;;19.20;48.30;;;;;;5029596;28;20025;-85
2021/03/26 13:02:03;;;;;;;6.50;3.45;;;19.20;49.40;;;;;;5032051;28;20028;-85
2021/03/26 13:04:54;;;;;;;8.40;3.72;;;19.50;48.60;;;;;;5030099;28;20018;-86
2021/03/26 13:07:34;;;;;;;7.82;3.70;;;19.60;49.10;;;;;;5029516;28;20065;-86
2021/03/26 13:10:22;;;;;;;7.13;3.88;;;19.70;48.40;;;;;;5033383;28;20108;-86
2021/03/26 13:12:49;;;;;;;8.57;3.75;;;19.40;49.20;;;;;;5033407;28;20052;-85
2021/03/26 13:15:32;;;;;;;7.65;3.67;;;19.40;49.80;;;;;;5030615;28;20021;-87
2021/03/26 13:18:11;;;;;;;7.63;4.05;;;19.40;49.20;;;;;;5030693;28;20065;-86
2021/03/26 13:21:07;;;;;;;7.38;3.10;;;19.70;48.60;;;;;;5031570;28;20017;-86
2021/03/26 13:23:36;;;;;;;7.95;4.07;;;19.70;49.10;;;;;;5030798;28;20491;-86
2021/03/26 13:26:10;;;;;;;9.65;3.25;;;19.40;49.40;;;;;;5043640;28;20417;-86
2021/03/26 13:28:43;;;;;;;7.75;3.40;;;19.60;50.70;;;;;;5035121;28;20056;-86
2021/03/26 13:31:21;;;;;;;10.18;3.72;;;20.00;50.70;;;;;;5048802;28;20048;-85
2021/03/26 13:34:06;;;;;;;7.65;4.35;;;20.40;48.60;;;;;;5030359;28;20077;-86
2021/03/26 13:36:55;;;;;;;8.32;4.10;;;20.40;46.60;;;;;;5034516;28;20028;-85
2021/03/26 13:39:26;;;;;;;6.00;3.38;;;20.80;47.30;;;;;;5024974;28;20030;-88
2021/03/26 13:42:00;;;;;;;6.55;3.00;;;21.00;46.40;;;;;;5032026;28;20052;-85
2021/03/26 13:44:31;;;;;;;4.07;2.20;;;20.80;45.10;;;;;;5048816;28;20025;-86
2021/03/26 13:47:05;;;;;;;5.75;2.67;;;20.60;44.20;;;;;;5031838;28;20033;-88
2021/03/26 13:49:32;;;;;;;5.60;2.85;;;20.20;43.90;;;;;;5029709;28;20033;-87
2021/03/26 13:52:18;;;;;;;6.03;2.78;;;20.10;45.50;;;;;;5032456;28;20096;-87